Time;durP1;ratioP1;P1;durP2;ratioP2;P2;SDS_P1;SDS_P2;PMS_P1;PMS_P2;Temp;Humidity;BMP_temperature;BMP_pressure;BME280_temperature;BME280_humidity;BME280_pressure;Samples;Min_cycle;Max_cycle;Signal;HPM_P1;HPM_P2
2023/04/27 00:00:52;;;;;;;9.13;4.93;;;;;;;7.29;77.95;100593.50;6215537;23;20024;-93
2023/04/27 00:03:30;;;;;;;10.02;5.00;;;;;;;6.84;78.19;100519.38;6218950;23;20016;-92
2023/04/27 00:06:00;;;;;;;9.02;5.00;;;;;;;7.16;78.62;100568.44;6238693;23;20024;-90
2023/04/27 00:08:27;;;;;;;9.57;4.95;;;;;;;6.93;78.09;100529.63;6242602;23;20028;-90
2023/04/27 00:10:56;;;;;;;9.35;4.47;;;;;;;7.21;77.67;100559.50;6216866;23;20077;-93
2023/04/27 00:13:38;;;;;;;8.30;4.78;;;;;;;6.96;77.68;100517.25;6220770;23;20008;-91
2023/04/27 00:16:08;;;;;;;12.70;5.15;;;;;;;7.26;74.64;100576.00;6244400;23;20012;-92
2023/04/27 00:18:45;;;;;;;10.80;4.82;;;;;;;7.21;75.82;100554.25;6220805;23;20024;-90
2023/04/27 00:21:22;;;;;;;9.95;4.25;;;;;;;7.30;74.28;100569.75;6246798;22;20016;-92
2023/04/27 00:23:56;;;;;;;7.00;4.47;;;;;;;7.49;74.50;100593.75;6248702;23;20007;-92
2023/04/27 00:26:25;;;;;;;7.55;4.35;;;;;;;7.47;73.39;100599.97;6247855;23;20008;-93
2023/04/27 00:28:56;;;;;;;9.13;4.10;;;;;;;7.40;74.73;100586.97;6232280;23;20016;-91
2023/04/27 00:31:25;;;;;;;7.80;4.00;;;;;;;7.29;74.13;100570.66;6235526;23;20016;-90
2023/04/27 00:33:53;;;;;;;9.43;4.68;;;;;;;7.21;73.78;100558.63;6262286;23;20024;-91
2023/04/27 00:36:23;;;;;;;6.63;4.00;;;;;;;7.45;74.34;100593.88;6233899;23;20016;-91
2023/04/27 00:38:50;;;;;;;7.13;3.72;;;;;;;7.45;73.93;100591.25;6233196;23;20067;-93
2023/04/27 00:41:24;;;;;;;9.00;4.20;;;;;;;7.04;73.27;100523.16;6231970;23;20034;-92
2023/04/27 00:43:54;;;;;;;6.13;3.60;;;;;;;7.26;73.13;100568.09;6230786;23;20016;-93
2023/04/27 00:46:23;;;;;;;6.85;3.70;;;;;;;7.44;71.96;100597.44;6232164;23;20026;-93
2023/04/27 00:48:55;;;;;;;6.70;3.70;;;;;;;7.42;72.87;100594.84;6231691;23;20484;-92
2023/04/27 00:51:49;;;;;;;7.38;4.25;;;;;;;7.13;73.24;100556.22;6256614;23;20064;-91
2023/04/27 00:54:22;;;;;;;10.85;3.70;;;;;;;6.71;73.86;100492.56;6256849;23;20016;-91
2023/04/27 00:56:51;;;;;;;7.63;4.00;;;;;;;6.75;72.69;100502.09;6230003;23;20020;-91
2023/04/27 00:59:36;;;;;;;8.18;4.00;;;;;;;7.23;72.72;100594.56;6208799;23;20027;-91
2023/04/27 01:02:21;;;;;;;8.15;4.20;;;;;;;6.78;74.12;100545.88;6229946;23;20008;-94
2023/04/27 01:04:54;;;;;;;7.15;3.90;;;;;;;6.52;75.15;100513.28;6231675;23;20011;-92
2023/04/27 01:07:25;;;;;;;9.27;3.90;;;;;;;7.03;75.93;100604.81;6255561;23;20070;-91
2023/04/27 01:09:53;;;;;;;9.07;4.38;;;;;;;6.59;75.98;100535.03;6216254;23;20023;-92
2023/04/27 01:12:21;;;;;;;6.50;3.72;;;;;;;6.92;76.14;100607.78;6205220;23;20020;-94
2023/04/27 01:14:52;;;;;;;8.27;4.13;;;;;;;6.30;76.85;100513.00;6206304;23;20497;-92
2023/04/27 01:40:24;;;;;;;7.32;4.00;;;;;;;7.06;76.81;100609.13;5993140;23;20068;-93
2023/04/27 02:02:52;;;;;;;;;;;;;;;;;;;;;
2023/04/27 02:06:27;;;;;;;;;;;;;;;;;;;;;
2023/04/27 02:09:56;;;;;;;8.32;3.95;;;;;;;6.86;80.79;100643.91;5917649;24;20081;-94
2023/04/27 02:13:33;;;;;;;5.97;4.18;;;;;;;6.83;79.91;100639.59;5857860;23;20058;-93
2023/04/27 02:16:35;;;;;;;7.38;4.40;;;;;;;6.86;78.81;100636.03;6057300;23;20021;-91
2023/04/27 02:19:25;;;;;;;8.98;4.45;;;;;;;6.81;79.80;100640.53;6086621;23;20015;-93
2023/04/27 02:22:02;;;;;;;6.45;3.67;;;;;;;6.43;78.62;100586.34;6153737;23;20032;-91
2023/04/27 02:24:44;;;;;;;6.22;4.00;;;;;;;6.18;78.52;100538.78;6175690;23;20009;-92
2023/04/27 02:27:21;;;;;;;6.45;4.30;;;;;;;6.51;77.85;100601.00;6178717;23;20053;-92
2023/04/27 02:34:43;;;;;;;;;;;;;;;;;;;;;
2023/04/27 02:45:29;;;;;;;5.63;3.83;;;;;;;5.92;82.96;100561.38;5936841;24;20051;-91
2023/04/27 02:47:57;;;;;;;9.15;4.40;;;;;;;6.25;82.76;100624.50;5920516;24;20277;-92
2023/04/27 02:50:25;;;;;;;7.03;4.13;;;;;;;6.24;82.91;100623.66;5969104;23;20033;-92
2023/04/27 02:52:54;;;;;;;10.50;4.00;;;;;;;6.38;82.57;100641.69;6163793;23;20021;-92
2023/04/27 02:55:21;;;;;;;8.07;4.45;;;;;;;6.20;83.54;100615.88;6171399;23;20019;-92
2023/04/27 02:57:50;;;;;;;6.60;3.80;;;;;;;6.25;84.02;100616.63;6233412;23;20039;-92
2023/04/27 03:00:20;;;;;;;10.30;4.05;;;;;;;6.04;81.99;100588.25;6243600;23;20043;-93
2023/04/27 03:02:56;;;;;;;9.07;3.90;;;;;;;6.19;80.97;100615.00;6244828;23;20019;-92
2023/04/27 03:05:30;;;;;;;7.93;4.18;;;;;;;6.03;81.88;100595.25;6237160;23;20020;-92
2023/04/27 03:07:58;;;;;;;8.70;4.25;;;;;;;5.93;83.39;100585.88;6265129;23;20045;-93
2023/04/27 03:10:26;;;;;;;11.18;4.10;;;;;;;5.90;82.36;100578.06;6231520;23;20020;-93
2023/04/27 03:12:55;;;;;;;6.85;4.00;;;;;;;6.06;82.27;100589.94;6254654;23;20030;-93
2023/04/27 03:15:35;;;;;;;9.15;4.30;;;;;;;6.29;82.97;100634.06;6205371;23;20055;-93
2023/04/27 03:18:05;;;;;;;12.43;4.93;;;;;;;6.21;81.06;100612.34;6260121;23;20030;-93
2023/04/27 03:20:33;;;;;;;8.80;4.15;;;;;;;5.95;81.32;100574.44;6240168;23;20068;-94
2023/04/27 03:23:15;;;;;;;9.73;4.90;;;;;;;5.93;83.15;100573.63;6234761;23;20050;-92
2023/04/27 03:25:46;;;;;;;6.72;3.92;;;;;;;6.23;82.16;100624.53;6206811;23;20068;-92
2023/04/27 03:28:20;;;;;;;6.85;3.70;;;;;;;6.23;83.05;100631.56;6260232;23;20034;-93
2023/04/27 03:30:49;;;;;;;10.43;4.18;;;;;;;6.09;82.96;100599.50;6260529;23;20042;-91
2023/04/27 03:33:18;;;;;;;9.18;3.97;;;;;;;6.26;83.61;100626.25;6230679;23;20057;-91
2023/04/27 03:35:54;;;;;;;8.70;4.32;;;;;;;6.11;83.96;100605.59;6207722;23;20020;-92
2023/04/27 03:38:27;;;;;;;9.13;4.57;;;;;;;6.28;83.97;100624.44;6238072;23;20114;-91
2023/04/27 03:40:55;;;;;;;9.07;4.70;;;;;;;6.12;84.28;100587.16;6209766;23;20056;-91
2023/04/27 03:43:28;;;;;;;8.05;4.10;;;;;;;6.14;84.94;100587.94;6246358;23;20030;-90
2023/04/27 03:45:56;;;;;;;8.38;4.47;;;;;;;6.26;83.01;100610.47;6241661;23;20020;-90
2023/04/27 03:48:38;;;;;;;10.27;4.93;;;;;;;6.01;84.80;100564.66;6200984;23;20082;-91
2023/04/27 03:51:12;;;;;;;10.00;4.75;;;;;;;6.23;83.53;100615.78;6243959;23;20017;-90
2023/04/27 03:53:39;;;;;;;9.30;4.28;;;;;;;5.65;84.12;100527.88;6242665;23;20028;-90
2023/04/27 03:56:06;;;;;;;9.05;4.75;;;;;;;6.12;84.16;100615.22;6270778;23;20016;-91
2023/04/27 03:58:42;;;;;;;8.45;4.70;;;;;;;6.06;85.72;100610.97;6242122;23;20051;-90
2023/04/27 04:01:11;;;;;;;8.65;4.82;;;;;;;6.03;86.70;100602.28;6239387;23;20016;-91
2023/04/27 04:03:40;;;;;;;6.78;4.38;;;;;;;5.83;88.35;100584.34;6239641;23;20020;-91
2023/04/27 04:06:10;;;;;;;10.93;5.45;;;;;;;6.04;87.77;100614.53;6269739;23;20130;-91
2023/04/27 04:08:40;;;;;;;9.70;5.18;;;;;;;6.14;89.44;100631.81;6260091;23;20107;-91
2023/04/27 04:11:08;;;;;;;7.55;4.72;;;;;;;6.19;89.51;100638.66;6233418;23;20008;-91
2023/04/27 04:13:36;;;;;;;6.45;4.80;;;;;;;6.10;89.16;100624.91;6236216;23;20016;-92
2023/04/27 04:16:06;;;;;;;10.93;4.93;;;;;;;6.08;88.86;100627.56;6236949;23;20076;-91
2023/04/27 04:18:36;;;;;;;10.23;5.20;;;;;;;6.19;89.49;100640.44;6238551;23;20024;-92
2023/04/27 04:21:12;;;;;;;9.88;5.32;;;;;;;6.18;88.88;100643.97;6212800;23;20099;-92
2023/04/27 04:23:42;;;;;;;8.35;5.13;;;;;;;6.17;89.65;100642.22;6237810;23;20016;-91
2023/04/27 04:26:08;;;;;;;7.95;5.15;;;;;;;6.06;88.36;100629.38;6239969;22;20027;-92
2023/04/27 04:28:51;;;;;;;9.60;4.93;;;;;;;6.16;88.11;100635.25;6250620;22;20079;-91
2023/04/27 04:31:20;;;;;;;9.20;5.20;;;;;;;6.11;88.39;100632.75;6273667;22;20023;-93
2023/04/27 04:33:54;;;;;;;7.28;5.15;;;;;;;6.14;89.72;100640.53;6248108;22;20055;-90
2023/04/27 04:36:22;;;;;;;9.82;5.32;;;;;;;6.13;89.74;100637.97;6272677;22;20023;-93
2023/04/27 04:38:50;;;;;;;11.07;5.50;;;;;;;6.17;91.31;100650.13;6247705;22;20023;-92
2023/04/27 04:41:32;;;;;;;9.50;5.00;;;;;;;6.02;91.88;100638.22;6242022;22;20016;-92
2023/04/27 04:44:10;;;;;;;8.35;5.35;;;;;;;6.06;90.80;100642.50;6245031;22;20036;-91
2023/04/27 04:46:39;;;;;;;9.90;5.45;;;;;;;6.06;92.31;100652.16;6223304;22;20060;-91
2023/04/27 04:49:10;;;;;;;7.18;5.22;;;;;;;6.04;92.97;100659.22;6245727;23;20019;-92
2023/04/27 04:51:43;;;;;;;9.02;5.60;;;;;;;5.96;93.37;100654.16;6221978;23;20004;-93
2023/04/27 04:54:14;;;;;;;8.77;4.95;;;;;;;5.76;92.30;100614.31;6272056;22;20055;-93
2023/04/27 04:56:41;;;;;;;9.63;5.35;;;;;;;5.35;92.03;100539.13;6220897;23;20015;-92
2023/04/27 04:59:12;;;;;;;8.52;5.60;;;;;;;5.73;91.30;100609.13;6218973;23;20020;-93
2023/04/27 05:01:42;;;;;;;10.20;5.35;;;;;;;5.55;90.44;100576.25;6218114;23;20012;-93
2023/04/27 05:04:12;;;;;;;11.13;6.07;;;;;;;5.99;91.11;100657.56;6237132;23;20100;-93
2023/04/27 05:06:42;;;;;;;8.32;5.35;;;;;;;5.96;90.56;100655.03;6216665;23;20012;-93
2023/04/27 05:09:11;;;;;;;9.00;5.15;;;;;;;6.01;91.43;100654.88;6271613;23;20031;-93
2023/04/27 05:11:41;;;;;;;9.18;5.28;;;;;;;6.06;91.13;100670.56;6241550;23;20058;-93
2023/04/27 05:14:09;;;;;;;9.07;5.03;;;;;;;5.75;90.29;100615.19;6242045;23;20020;-92
2023/04/27 05:16:50;;;;;;;10.73;5.63;;;;;;;6.13;90.08;100672.16;6243122;23;20024;-92
2023/04/27 05:23:35;;;;;;;11.00;4.68;;;;;;;6.26;89.56;100678.84;6261063;23;20030;-92
2023/04/27 05:26:15;;;;;;;9.13;5.30;;;;;;;6.28;88.29;100683.16;6262808;23;20019;-93
2023/04/27 05:28:53;;;;;;;7.47;5.00;;;;;;;6.26;86.43;100674.44;6232784;23;20020;-92
2023/04/27 05:31:27;;;;;;;11.00;5.20;;;;;;;6.30;85.90;100664.69;6231845;23;20070;-93
2023/04/27 05:33:57;;;;;;;11.00;5.15;;;;;;;6.24;85.00;100643.81;6208449;23;20071;-93
2023/04/27 05:36:32;;;;;;;7.47;5.57;;;;;;;6.33;86.36;100659.34;6235383;23;20027;-93
2023/04/27 05:39:02;;;;;;;10.20;5.30;;;;;;;6.49;87.02;100681.72;6240528;23;20016;-93
2023/04/27 05:41:45;;;;;;;6.95;4.85;;;;;;;6.48;85.55;100664.22;6236816;23;20016;-93
2023/04/27 05:44:46;;;;;;;10.55;5.20;;;;;;;6.71;85.24;100676.78;6240518;22;20082;-93
2023/04/27 05:47:54;;;;;;;11.95;4.88;;;;;;;6.82;81.69;100684.38;6253524;23;20027;-93
2023/04/27 05:50:38;;;;;;;;;;;;;;;6.86;82.09;100688.66;6262261;22;20016;-93
2023/04/27 05:53:17;;;;;;;10.15;4.70;;;;;;;6.72;80.58;100657.47;6235024;23;19916;-93
2023/04/27 05:56:10;;;;;;;9.57;5.45;;;;;;;6.83;81.15;100659.78;6236751;23;20023;-92
2023/04/27 05:58:52;;;;;;;11.38;5.40;;;;;;;7.09;79.98;100691.53;6208741;23;20142;-93
2023/04/27 06:01:38;;;;;;;8.30;4.82;;;;;;;7.18;79.87;100704.44;6249516;23;20014;-93
2023/04/27 06:04:08;;;;;;;10.55;5.13;;;;;;;7.14;79.63;100675.59;6247432;23;20016;-94
2023/04/27 06:06:49;;;;;;;8.88;5.10;;;;;;;7.40;78.72;100702.91;6247738;22;20013;-92
2023/04/27 06:09:17;;;;;;;12.52;5.22;;;;;;;7.36;78.46;100671.44;6272641;22;20023;-92
2023/04/27 06:11:46;;;;;;;8.95;4.97;;;;;;;7.45;77.60;100667.66;6246356;22;20016;-92
2023/04/27 06:14:15;;;;;;;7.78;4.97;;;;;;;7.27;74.98;100606.72;6264820;23;20016;-91
2023/04/27 06:16:59;;;;;;;8.40;4.68;;;;;;;7.67;73.39;100651.16;6241961;23;20020;-93
2023/04/27 06:19:32;;;;;;;8.60;4.97;;;;;;;8.00;72.85;100675.63;6244189;23;20008;-93
2023/04/27 06:22:00;;;;;;;8.52;4.60;;;;;;;8.25;69.48;100658.97;6240501;22;20028;-92
2023/04/27 06:24:30;;;;;;;10.68;4.63;;;;;;;8.94;67.36;100713.81;6239452;23;20020;-93
2023/04/27 06:27:08;;;;;;;6.32;4.60;;;;;;;9.43;65.87;100712.91;6202512;23;20025;-93
2023/04/27 06:29:35;;;;;;;11.15;4.95;;;;;;;9.93;62.16;100712.75;6201012;23;20036;-93
2023/04/27 06:36:02;;;;;;;8.43;3.78;;;;;;;11.06;54.69;100710.72;6235379;23;20017;-91
2023/04/27 06:38:54;;;;;;;6.43;3.65;;;;;;;11.08;53.06;100707.06;6174126;23;20013;-93
2023/04/27 06:41:44;;;;;;;6.35;3.60;;;;;;;11.08;52.74;100714.16;6150993;23;20388;-93
2023/04/27 06:44:39;;;;;;;12.63;4.10;;;;;;;10.75;53.92;100720.00;6151188;23;20020;-92
2023/04/27 06:47:18;;;;;;;8.98;3.70;;;;;;;10.57;53.93;100696.94;6151699;23;20014;-89
2023/04/27 06:50:07;;;;;;;8.85;3.97;;;;;;;10.52;53.49;100713.03;6129447;23;20127;-93
2023/04/27 06:53:18;;;;;;;8.20;3.30;;;;;;;10.44;54.66;100703.66;5113401;28;20538;-92
2023/04/27 06:55:59;;;;;;;4.97;3.50;;;;;;;10.72;54.84;100724.53;5105240;28;20380;-94
2023/04/27 06:58:43;;;;;;;7.43;3.72;;;;;;;11.00;53.25;100719.81;5084198;28;20082;-93
2023/04/27 07:01:10;;;;;;;7.53;4.50;;;;;;;11.14;52.95;100720.06;5084793;28;20044;-94
2023/04/27 07:03:45;;;;;;;5.57;4.20;;;;;;;11.21;53.23;100707.38;5073602;28;20044;-92
2023/04/27 07:17:14;;;;;;;7.30;3.97;;;;;;;11.41;51.60;100667.59;5596981;22;16920333;-92
2023/04/27 07:19:55;;;;;;;11.38;4.70;;;;;;;11.71;52.18;100717.47;6315026;22;20017;-92
2023/04/27 07:22:35;;;;;;;6.40;4.07;;;;;;;11.90;52.13;100723.69;6331012;22;20007;-93
2023/04/27 07:25:18;;;;;;;7.22;4.00;;;;;;;11.87;51.50;100697.28;6340482;22;20372;-93
2023/04/27 07:27:54;;;;;;;6.70;4.10;;;;;;;11.83;49.15;100680.66;6338850;22;20017;-93
2023/04/27 07:30:35;;;;;;;6.45;3.75;;;;;;;12.05;49.53;100707.03;6316857;22;20071;-91
2023/04/27 07:37:37;;;;;;;7.97;3.50;;;;;;;12.32;49.07;100725.22;6342767;22;20049;-94
2023/04/27 07:40:23;;;;;;;5.68;3.35;;;;;;;11.87;49.43;100723.84;6340278;22;20022;-94
2023/04/27 07:42:52;;;;;;;7.03;3.90;;;;;;;11.80;50.27;100719.75;6338123;22;20006;-93
2023/04/27 07:45:49;;;;;;;5.88;3.58;;;;;;;11.74;49.28;100673.09;6319394;22;20037;-93
2023/04/27 07:48:49;;;;;;;8.35;3.63;;;;;;;12.44;47.82;100717.50;6336109;22;20015;-93
2023/04/27 07:51:39;;;;;;;7.50;3.97;;;;;;;12.64;47.97;100721.81;6331448;22;20022;-95
2023/04/27 07:54:11;;;;;;;7.43;4.10;;;;;;;12.27;46.93;100644.00;6328147;22;20014;-93
2023/04/27 07:56:50;;;;;;;8.48;4.38;;;;;;;12.51;47.92;100726.03;6330579;22;20011;-93
2023/04/27 08:00:04;;;;;;;9.35;4.38;;;;;;;12.55;47.89;100709.00;6325144;22;20061;-95
2023/04/27 08:02:48;;;;;;;9.27;3.72;;;;;;;12.84;46.89;100719.03;6322026;22;20019;-93
2023/04/27 08:05:22;;;;;;;9.32;3.70;;;;;;;13.36;46.50;100708.38;6329812;22;20015;-94
2023/04/27 08:08:08;;;;;;;10.13;4.10;;;;;;;13.72;46.91;100705.50;6325038;22;20011;-93
2023/04/27 08:10:42;;;;;;;7.20;3.55;;;;;;;13.76;45.59;100700.88;6302898;22;20017;-93
2023/04/27 08:13:23;;;;;;;6.63;3.20;;;;;;;13.82;44.85;100696.06;6326186;22;20038;-94
2023/04/27 08:16:09;;;;;;;5.88;3.03;;;;;;;14.03;44.08;100712.63;6325887;22;20019;-95
2023/04/27 08:22:40;;;;;;;5.70;3.38;;;;;;;13.91;43.44;100660.06;6212717;23;20016;-93
2023/04/27 08:25:28;;;;;;;7.60;4.10;;;;;;;14.07;43.12;100702.66;6164747;23;20025;-94
2023/04/27 08:28:10;;;;;;;9.38;3.45;;;;;;;13.75;43.68;100696.47;6187114;23;20020;-93
2023/04/27 08:30:50;;;;;;;7.15;3.33;;;;;;;13.53;44.91;100678.19;6188907;23;20009;-94
2023/04/27 08:33:20;;;;;;;8.15;3.70;;;;;;;13.47;44.71;100674.06;6163531;23;20005;-94
2023/04/27 08:36:07;;;;;;;6.35;3.30;;;;;;;13.42;45.54;100673.44;6185919;23;20013;-94
2023/04/27 08:38:56;;;;;;;5.32;3.58;;;;;;;13.10;46.32;100619.28;6192140;23;20021;-94
2023/04/27 08:41:31;;;;;;;7.22;3.88;;;;;;;13.02;45.21;100649.91;6179092;23;20017;-94
2023/04/27 08:44:12;;;;;;;5.70;3.75;;;;;;;12.86;45.13;100599.34;6189581;23;20035;-93
2023/04/27 08:46:41;;;;;;;6.75;4.32;;;;;;;13.15;45.53;100690.88;6097988;23;20010;-93
2023/04/27 08:49:28;;;;;;;7.35;3.60;;;;;;;13.31;46.15;100682.00;6106650;23;20019;-93
2023/04/27 08:52:01;;;;;;;7.28;4.05;;;;;;;13.50;45.34;100652.59;6019665;23;20019;-94
2023/04/27 08:54:38;;;;;;;7.53;3.83;;;;;;;14.05;44.29;100687.63;5965574;24;20072;-93
2023/04/27 08:57:13;;;;;;;7.32;4.15;;;;;;;13.76;43.31;100639.66;6091825;23;20018;-92
2023/04/27 08:59:59;;;;;;;5.43;3.70;;;;;;;14.16;43.77;100652.44;6083840;23;20018;-93
2023/04/27 09:02:47;;;;;;;8.88;4.15;;;;;;;14.45;42.54;100661.41;6106549;23;20062;-93
2023/04/27 09:05:36;;;;;;;6.88;4.25;;;;;;;14.49;41.86;100662.94;6178187;23;20021;-95
2023/04/27 09:08:50;;;;;;;7.60;4.25;;;;;;;14.30;41.98;100644.50;6108786;23;20077;-94
2023/04/27 09:11:48;;;;;;;7.82;3.38;;;;;;;14.35;42.23;100697.47;6311719;22;20333;-94
2023/04/27 09:14:27;;;;;;;5.45;3.40;;;;;;;14.09;41.79;100637.72;6311505;22;20355;-94
2023/04/27 09:17:27;;;;;;;8.02;3.58;;;;;;;14.19;41.85;100697.50;6298543;22;20019;-94
2023/04/27 09:20:11;;;;;;;7.10;3.10;;;;;;;13.64;43.34;100691.75;6318893;22;20050;-93
2023/04/27 09:22:57;;;;;;;7.70;3.83;;;;;;;12.66;44.55;100587.09;6319687;22;20041;-94
2023/04/27 09:25:38;;;;;;;9.15;4.20;;;;;;;13.21;43.90;100686.09;6322583;22;20019;-93
2023/04/27 09:28:29;;;;;;;8.73;3.90;;;;;;;12.94;45.57;100607.75;6319647;22;20091;-93
2023/04/27 09:31:13;;;;;;;8.27;3.67;;;;;;;12.95;43.83;100590.88;6321848;22;20015;-93
2023/04/27 09:34:00;;;;;;;4.72;3.47;;;;;;;13.50;44.51;100681.88;6321304;22;20383;-93
2023/04/27 09:36:29;;;;;;;;;;;;;;;13.42;44.09;100676.09;6326659;22;20065;-92
2023/04/27 09:39:11;;;;;;;7.72;3.60;;;;;;;13.40;43.96;100680.63;6332355;22;19950;-92
2023/04/27 09:42:06;;;;;;;;;;;;;;;13.41;44.50;100673.50;6334143;22;20008;-92
2023/04/27 09:45:14;;;;;;;9.13;3.40;;;;;;;13.15;44.61;100616.44;6332398;22;19913;-92
2023/04/27 09:47:54;;;;;;;8.13;3.60;;;;;;;13.62;43.98;100665.22;6334630;22;20019;-92
2023/04/27 09:50:46;;;;;;;6.57;3.38;;;;;;;13.74;43.58;100663.69;6320763;22;20015;-92
2023/04/27 09:53:54;;;;;;;6.75;2.90;;;;;;;13.49;43.61;100610.13;6325191;22;20011;-93
2023/04/27 09:56:39;;;;;;;6.55;3.30;;;;;;;13.96;43.04;100652.69;6322856;22;20019;-92
2023/04/27 10:00:06;;;;;;;7.10;3.63;;;;;;;13.96;42.47;100652.69;6322308;22;20436;-93
2023/04/27 10:03:19;;;;;;;6.30;3.70;;;;;;;14.08;42.91;100654.66;6272681;22;20050;-93
2023/04/27 10:09:50;;;;;;;8.88;4.35;;;;;;;14.52;41.66;100641.44;6299296;22;20088;-93
2023/04/27 10:12:20;;;;;;;6.93;3.97;;;;;;;14.63;40.82;100638.16;6270504;22;20023;-94
2023/04/27 10:15:19;;;;;;;6.57;3.72;;;;;;;14.73;41.74;100629.50;6325455;22;20393;-93
2023/04/27 10:18:10;;;;;;;6.07;3.80;;;;;;;15.02;40.30;100645.53;6325131;22;20015;-92
2023/04/27 10:21:03;;;;;;;5.78;3.72;;;;;;;15.19;40.14;100640.00;6325106;22;20058;-95
2023/04/27 10:23:47;;;;;;;9.25;3.97;;;;;;;15.33;40.67;100641.81;6303119;22;20011;-93
2023/04/27 10:26:46;;;;;;;9.70;4.57;;;;;;;15.53;39.79;100630.75;6330193;22;20044;-93
2023/04/27 10:29:45;;;;;;;7.78;3.80;;;;;;;15.70;38.80;100617.22;6330716;22;20027;-90
2023/04/27 10:32:36;;;;;;;5.32;3.55;;;;;;;16.04;39.32;100642.59;6334779;22;20046;-91
2023/04/27 10:35:54;;;;;;;8.65;4.60;;;;;;;16.14;38.19;100640.16;6331215;22;20075;-91
2023/04/27 10:38:30;;;;;;;6.80;4.30;;;;;;;15.93;37.94;100602.34;6331656;22;20030;-91
2023/04/27 10:41:33;;;;;;;9.43;5.57;;;;;;;16.21;37.91;100621.91;6329563;22;20359;-90
2023/04/27 10:48:13;;;;;;;8.65;4.40;;;;;;;15.98;37.66;100634.97;6336203;22;20030;-93
2023/04/27 10:50:50;;;;;;;10.93;4.57;;;;;;;15.75;37.53;100603.53;6335228;22;20026;-92
2023/04/27 10:53:37;;;;;;;6.55;4.32;;;;;;;15.83;38.02;100632.44;6333722;22;20059;-93
2023/04/27 10:56:15;;;;;;;9.02;4.93;;;;;;;16.05;38.94;100627.41;6319894;22;20022;-93
2023/04/27 10:59:08;;;;;;;11.82;5.18;;;;;;;16.31;38.25;100620.31;6317186;22;20050;-92
2023/04/27 11:02:21;;;;;;;9.75;4.40;;;;;;;16.49;36.67;100611.91;6326349;22;20500;-94
2023/04/27 11:05:31;;;;;;;9.48;4.18;;;;;;;16.76;37.07;100622.56;6238663;22;20034;-94
2023/04/27 11:08:16;;;;;;;9.38;3.85;;;;;;;17.05;36.13;100608.97;6317912;22;20022;-94
2023/04/27 11:11:00;;;;;;;6.28;3.58;;;;;;;17.15;36.38;100586.84;6320574;22;20015;-92
2023/04/27 11:13:28;;;;;;;9.38;4.15;;;;;;;17.41;36.10;100606.38;6296375;22;20018;-93
2023/04/27 11:16:02;;;;;;;6.03;3.70;;;;;;;17.17;35.38;100574.16;6303908;22;20593;-92
2023/04/27 11:18:41;;;;;;;9.73;4.32;;;;;;;17.40;34.58;100598.44;6333550;22;20022;-93
2023/04/27 11:21:16;;;;;;;7.28;3.95;;;;;;;17.44;35.17;100605.31;6334143;22;20045;-92
2023/04/27 11:24:27;;;;;;;8.50;4.05;;;;;;;17.25;35.56;100581.66;6335435;22;20015;-94
2023/04/27 11:27:06;;;;;;;6.82;4.55;;;;;;;17.29;34.65;100590.34;6334472;22;20034;-94
2023/04/27 11:29:41;;;;;;;7.97;4.55;;;;;;;17.21;35.33;100592.69;6329671;22;20019;-92
2023/04/27 11:32:41;;;;;;;;;;;;;;;17.10;35.64;100590.78;6332857;22;20063;-93
2023/04/27 11:35:17;;;;;;;9.05;4.20;;;;;;;17.01;36.01;100565.53;6326372;22;19918;-93
2023/04/27 11:38:41;;;;;;;7.82;4.35;;;;;;;17.23;37.17;100561.31;6318565;22;20026;-93
2023/04/27 11:42:24;;;;;;;5.95;4.05;;;;;;;17.02;36.73;100572.59;6319821;22;20053;-91
2023/04/27 11:45:09;;;;;;;13.07;4.70;;;;;;;17.03;37.21;100581.47;6315472;22;20011;-92
2023/04/27 11:52:09;;;;;;;10.45;4.75;;;;;;;16.19;37.78;100571.25;6320666;22;20086;-94
2023/04/27 11:58:46;;;;;;;;;;;;;;;16.29;36.71;100568.78;6326280;22;20045;-93
2023/04/27 12:01:33;;;;;;;7.25;4.78;;;;;;;16.53;37.42;100559.09;6319776;22;19917;-93
2023/04/27 12:04:27;;;;;;;10.55;5.07;;;;;;;16.54;37.52;100562.59;6306312;22;20014;-94
2023/04/27 12:07:20;;;;;;;7.22;4.38;;;;;;;16.78;37.22;100552.94;6303618;22;20015;-93
2023/04/27 12:10:03;;;;;;;11.40;4.10;;;;;;;17.03;36.28;100560.94;6322098;22;20015;-93
2023/04/27 12:12:47;;;;;;;7.05;4.07;;;;;;;17.09;36.18;100547.13;6274462;22;20019;-92
2023/04/27 12:15:27;;;;;;;9.30;4.35;;;;;;;17.30;35.93;100557.25;6273231;22;20069;-93
2023/04/27 12:17:57;;;;;;;8.77;4.60;;;;;;;17.38;34.95;100563.75;6323706;22;20019;-94
2023/04/27 12:20:27;;;;;;;8.18;4.90;;;;;;;17.12;35.04;100498.75;6323790;22;20019;-93
2023/04/27 12:23:04;;;;;;;10.13;5.13;;;;;;;17.00;34.67;100488.91;6320937;22;20041;-93
2023/04/27 12:25:39;;;;;;;8.27;4.00;;;;;;;17.33;35.95;100532.91;6266923;22;20034;-93
2023/04/27 12:28:21;;;;;;;10.07;5.10;;;;;;;17.52;34.18;100544.84;6297464;22;20039;-93
2023/04/27 12:31:05;;;;;;;10.57;5.03;;;;;;;17.39;34.24;100536.03;6302021;22;20050;-92
2023/04/27 12:33:54;;;;;;;7.38;4.50;;;;;;;17.48;35.10;100535.34;6304924;22;20087;-93
2023/04/27 12:36:49;;;;;;;7.53;4.78;;;;;;;17.37;34.84;100534.41;6330288;22;20023;-93
2023/04/27 12:39:33;;;;;;;8.13;4.15;;;;;;;17.41;35.64;100527.88;6314691;22;20015;-92
2023/04/27 12:42:24;;;;;;;6.80;4.55;;;;;;;17.62;34.39;100531.66;6308987;22;20016;-93
2023/04/27 12:45:07;;;;;;;9.93;4.70;;;;;;;17.86;34.04;100531.69;6326167;22;20034;-93
2023/04/27 12:55:15;;;;;;;7.07;4.28;;;;;;;17.10;35.80;100503.34;6269376;23;20024;-92
2023/04/27 12:58:12;;;;;;;9.77;4.22;;;;;;;17.31;35.28;100514.31;6269906;23;20027;-93
2023/04/27 13:00:58;;;;;;;5.72;4.13;;;;;;;17.48;35.17;100510.38;6245741;22;20032;-93
2023/04/27 13:04:06;;;;;;;11.98;5.35;;;;;;;17.41;34.82;100509.16;6270548;23;20019;-93
2023/04/27 13:06:58;;;;;;;7.40;4.20;;;;;;;17.44;35.88;100503.56;6179598;23;20017;-94
2023/04/27 13:13:47;;;;;;;8.05;4.20;;;;;;;17.81;34.76;100486.47;6211619;23;20032;-93
2023/04/27 13:23:56;;;;;;;5.07;3.30;;;;;;;18.00;33.47;100496.66;6166537;22;20015;-93
2023/04/27 13:26:49;;;;;;;4.20;3.15;;;;;;;18.03;33.43;100483.03;6296085;22;20419;-92
2023/04/27 13:29:48;;;;;;;7.30;3.30;;;;;;;17.76;32.88;100451.16;6296252;22;20023;-93
2023/04/27 13:32:43;;;;;;;6.30;3.25;;;;;;;17.81;32.90;100440.94;6299942;22;20042;-93
2023/04/27 13:35:12;;;;;;;7.80;4.55;;;;;;;17.82;32.96;100401.63;6276081;22;20011;-94
2023/04/27 13:37:52;;;;;;;6.88;4.57;;;;;;;18.22;32.09;100453.84;6296805;22;20429;-93
2023/04/27 13:40:35;;;;;;;6.28;3.60;;;;;;;18.39;32.39;100465.94;6289869;22;20053;-93
2023/04/27 13:43:20;;;;;;;10.15;3.53;;;;;;;18.39;32.33;100451.69;6298782;22;20015;-93
2023/04/27 13:46:39;;;;;;;4.45;3.30;;;;;;;18.59;32.36;100485.84;6298478;22;20019;-92
2023/04/27 13:49:12;;;;;;;9.68;3.72;;;;;;;18.74;32.00;100494.50;6322294;22;20049;-92
2023/04/27 13:52:16;;;;;;;9.45;4.95;;;;;;;18.91;31.98;100491.31;6325943;22;20013;-94
2023/04/27 13:54:58;;;;;;;4.55;3.20;;;;;;;18.92;31.61;100480.47;6294790;22;20003;-93
2023/04/27 14:01:10;;;;;;;8.10;3.65;;;;;;;18.35;34.86;100391.22;6328487;22;19971;-94
2023/04/27 14:04:11;;;;;;;8.52;3.88;;;;;;;18.99;34.27;100466.56;6325679;22;20015;-92
2023/04/27 14:06:54;;;;;;;5.80;3.50;;;;;;;19.24;32.89;100482.38;6334696;22;20018;-93
2023/04/27 14:09:37;;;;;;;7.07;4.07;;;;;;;19.19;32.09;100461.31;6285497;22;20007;-92
2023/04/27 14:12:49;;;;;;;7.68;3.97;;;;;;;18.75;33.21;100429.13;6333786;22;20037;-93
2023/04/27 14:15:56;;;;;;;6.60;3.97;;;;;;;18.68;33.45;100449.41;6309596;22;20019;-92
2023/04/27 14:22:25;;;;;;;6.97;4.10;;;;;;;18.01;34.51;100476.94;6150025;23;20021;-94
2023/04/27 14:25:03;;;;;;;7.95;4.00;;;;;;;17.62;35.07;100445.97;6103072;23;20021;-93
2023/04/27 14:31:40;;;;;;;6.55;4.03;;;;;;;17.35;36.23;100454.22;6123837;23;20543;-93
2023/04/27 14:34:13;;;;;;;8.93;4.00;;;;;;;17.65;35.83;100452.94;6138882;23;20025;-93
2023/04/27 14:37:00;;;;;;;8.38;4.78;;;;;;;17.93;35.32;100479.34;6140530;23;20072;-92
2023/04/27 14:39:34;;;;;;;6.32;3.97;;;;;;;18.03;34.90;100477.66;6123260;23;20014;-93
2023/04/27 14:42:13;;;;;;;7.55;4.03;;;;;;;18.13;35.17;100475.97;6127354;23;20040;-92
2023/04/27 14:45:19;;;;;;;7.43;3.70;;;;;;;17.79;35.17;100391.13;6129016;23;20022;-91
2023/04/27 14:47:53;;;;;;;8.15;4.57;;;;;;;18.37;34.43;100475.06;6131297;23;20337;-92